Bignell, Nebraska
Current Conditions -  °F | °C
As of 2:53 PM on Friday 24 Oct 2014 (Local Time) from KLBF Reporting Station
Clear Clear  
Wind Chill: 83°   Ceiling: Unl
Heat Index: 83°   Visibility: 10mi
Dew Point: 33°   Wind: 13mph
Humidity: 17%   Direction: 270°W
Pressure: 29.97"   Gusts: NA
Location:  41.0617°N, 100.501°W
Report Text: KLBF 241953Z AUTO 27011KT 10SM CLR 28/01 A2997 RMK AO2 SLP131 T02830006
Loading
Personal Weather Stations






























Interactive Weather Map
Tropical Storm Tracking
New forecast layout! Learn more

10-Day Weather Forecast

Advertisements
Track Severe Weather on mobile